createdAt,value
2018-02-11T00:00:04.369Z,960.88
2018-02-11T00:15:12.785Z,960.8
2018-02-11T00:30:04.608Z,960.8
2018-02-11T00:45:05.641Z,960.83
2018-02-11T01:00:05.525Z,960.69
2018-02-11T01:15:07.509Z,960.64
2018-02-11T01:30:06.538Z,960.48
2018-02-11T01:45:05.083Z,960.32
2018-02-11T02:00:05.499Z,960.32
2018-02-11T02:15:04.713Z,960.16
2018-02-11T02:30:05.101Z,959.84
2018-02-11T02:45:04.515Z,959.7
2018-02-11T03:00:05.007Z,959.54
2018-02-11T03:15:04.796Z,959.38
2018-02-11T03:30:05.480Z,959.33
2018-02-11T03:45:05.207Z,959.38
2018-02-11T04:00:05.077Z,959.06
2018-02-11T04:15:07.555Z,958.87
2018-02-11T04:30:05.255Z,958.79
2018-02-11T04:45:04.673Z,959.03
2018-02-11T05:00:05.885Z,959.09
2018-02-11T05:15:05.220Z,958.66
2018-02-11T05:30:05.339Z,958.34
2018-02-11T05:45:04.471Z,958.23
2018-02-11T06:00:04.586Z,958.26
2018-02-11T06:15:08.392Z,958.47
2018-02-11T06:30:04.733Z,957.96
2018-02-11T06:45:05.075Z,957.94
2018-02-11T07:00:04.697Z,957.32
2018-02-11T07:15:04.740Z,957.16
2018-02-11T07:30:04.379Z,956.81
2018-02-11T07:45:05.261Z,956.73
2018-02-11T08:00:05.140Z,956.04
2018-02-11T08:15:05.052Z,955.47
2018-02-11T08:30:05.698Z,955.47
2018-02-11T08:45:04.572Z,955.69
2018-02-11T09:00:05.116Z,956.2
2018-02-11T09:15:04.506Z,956.95
2018-02-11T09:30:04.603Z,956.62
2018-02-11T09:45:04.656Z,956.12
2018-02-11T10:00:04.607Z,955.45
2018-02-11T10:15:04.507Z,955.37
2018-02-11T10:30:04.620Z,955.53
2018-02-11T10:45:08.168Z,954.81
2018-02-11T11:00:05.066Z,954.89
2018-02-11T11:15:04.503Z,954.99
2018-02-11T11:30:05.675Z,954.43
2018-02-11T11:45:04.656Z,954.14
2018-02-11T12:00:07.778Z,953.39
2018-02-11T12:15:04.919Z,953.07
2018-02-11T12:30:05.473Z,952.85
2018-02-11T12:45:06.151Z,952.56
2018-02-11T13:00:05.245Z,951.49
2018-02-11T13:15:05.014Z,951.65
2018-02-11T13:30:05.674Z,950.85
2018-02-11T13:45:05.173Z,950.23
2018-02-11T14:00:05.117Z,950.36
2018-02-11T14:15:04.984Z,950.42
2018-02-11T14:30:04.666Z,950.6
2018-02-11T14:45:05.070Z,950.68
2018-02-11T15:00:05.859Z,950.52
2018-02-11T15:15:05.800Z,950.71
2018-02-11T15:30:07.494Z,950.87
2018-02-11T15:45:05.047Z,950.93
2018-02-11T16:00:04.382Z,950.87
2018-02-11T16:15:04.807Z,951.38
2018-02-11T16:30:04.464Z,951.49
2018-02-11T16:45:04.357Z,951.17
2018-02-11T17:00:04.839Z,951.27
2018-02-11T17:15:05.259Z,951.3
2018-02-11T17:30:04.850Z,951.43
2018-02-11T17:45:05.228Z,951.62
2018-02-11T18:00:04.613Z,952.24
2018-02-11T18:15:04.997Z,952.45
2018-02-11T18:30:04.695Z,952.45
2018-02-11T18:45:05.248Z,952.72
2018-02-11T19:00:04.686Z,953.23
2018-02-11T19:15:04.568Z,953.39
2018-02-11T19:30:05.247Z,954.16
2018-02-11T19:45:05.145Z,954.3
2018-02-11T20:00:05.053Z,954.3
2018-02-11T20:15:05.106Z,954
2018-02-11T20:30:05.250Z,953.98
2018-02-11T20:45:04.699Z,954.59
2018-02-11T21:00:04.704Z,954.94
2018-02-11T21:15:04.617Z,955.02
2018-02-11T21:30:04.756Z,955.13
2018-02-11T21:45:04.727Z,954.89
2018-02-11T22:00:04.700Z,955.15
2018-02-11T22:15:04.603Z,955.88
2018-02-11T22:30:05.798Z,955.63
2018-02-11T22:45:04.725Z,955.02
2018-02-11T23:00:05.140Z,955.02
2018-02-11T23:15:05.080Z,955.34
2018-02-11T23:30:04.681Z,955.39
2018-02-11T23:45:05.536Z,955.47
